createdAt,value
2017-01-28T00:00:12.697Z,942.1
2017-01-28T00:01:20.779Z,942.1
2017-01-28T00:02:28.966Z,942.0
2017-01-28T00:03:36.904Z,942.0
2017-01-28T00:04:44.992Z,942.0
2017-01-28T00:05:53.079Z,942.0
2017-01-28T00:07:01.297Z,942.0
2017-01-28T00:08:09.260Z,941.9
2017-01-28T00:09:17.344Z,941.9
2017-01-28T00:10:25.440Z,941.9
2017-01-28T00:11:33.525Z,941.9
2017-01-28T00:12:41.770Z,941.9
2017-01-28T00:13:49.773Z,941.8
2017-01-28T00:14:57.792Z,941.8
2017-01-28T00:16:05.999Z,941.8
2017-01-28T00:17:13.967Z,941.7
2017-01-28T00:18:22.111Z,941.7
2017-01-28T00:19:30.146Z,941.8
2017-01-28T00:20:38.227Z,941.8
2017-01-28T00:21:46.313Z,941.8
2017-01-28T00:22:54.404Z,941.8
2017-01-28T00:24:02.547Z,941.8
2017-01-28T00:25:10.575Z,941.8
2017-01-28T00:26:18.668Z,941.8
2017-01-28T00:27:26.757Z,941.8
2017-01-28T00:28:34.847Z,941.8
2017-01-28T00:29:43.048Z,941.8
2017-01-28T00:30:51.021Z,941.8
2017-01-28T00:31:59.163Z,941.9
2017-01-28T00:33:07.199Z,941.9
2017-01-28T00:34:15.349Z,941.9
2017-01-28T00:35:23.429Z,941.9
2017-01-28T00:36:31.457Z,941.9
2017-01-28T00:37:39.542Z,941.8
2017-01-28T00:38:47.637Z,941.9
2017-01-28T00:39:55.727Z,941.9
2017-01-28T00:41:03.940Z,941.8
2017-01-28T00:42:11.901Z,941.8
2017-01-28T00:43:19.991Z,941.8
2017-01-28T00:44:28.073Z,941.8
2017-01-28T00:45:36.202Z,941.8
2017-01-28T00:46:44.316Z,941.8
2017-01-28T00:47:52.404Z,941.7
2017-01-28T00:49:00.432Z,941.7
2017-01-28T00:50:08.711Z,941.7
2017-01-28T00:51:16.628Z,941.7
2017-01-28T00:52:24.773Z,941.7
2017-01-28T00:53:32.801Z,941.7
2017-01-28T00:54:40.891Z,941.6
2017-01-28T00:55:48.981Z,941.6
2017-01-28T00:56:57.064Z,941.6
2017-01-28T00:58:05.276Z,941.6
2017-01-28T00:59:13.245Z,941.6
2017-01-28T01:00:21.420Z,941.6
2017-01-28T01:01:29.417Z,941.6
2017-01-28T01:02:37.511Z,941.6
2017-01-28T01:03:45.715Z,941.6
2017-01-28T01:04:53.686Z,941.6
2017-01-28T01:06:01.773Z,941.6
2017-01-28T01:07:09.857Z,941.6
2017-01-28T01:08:17.941Z,941.6
2017-01-28T01:09:26.086Z,941.7
2017-01-28T01:10:34.121Z,941.6
2017-01-28T01:11:42.229Z,941.6
2017-01-28T01:12:50.291Z,941.6
2017-01-28T01:13:58.384Z,941.6
2017-01-28T01:15:06.594Z,941.6
2017-01-28T01:16:14.695Z,941.6
2017-01-28T01:17:22.663Z,941.6
2017-01-28T01:18:30.739Z,941.6
2017-01-28T01:19:38.881Z,941.6
2017-01-28T01:20:46.968Z,941.6
2017-01-28T01:21:55.005Z,941.6
2017-01-28T01:23:03.101Z,941.6
2017-01-28T01:24:11.189Z,941.6
2017-01-28T01:25:19.281Z,941.6
2017-01-28T01:26:27.491Z,941.6
2017-01-28T01:27:35.458Z,941.6
2017-01-28T01:28:43.547Z,941.6
2017-01-28T01:29:51.632Z,941.6
2017-01-28T01:30:59.728Z,941.6
2017-01-28T01:32:08.067Z,941.6
2017-01-28T01:33:15.909Z,941.6
2017-01-28T01:34:23.998Z,941.6
2017-01-28T01:35:32.139Z,941.6
2017-01-28T01:36:40.175Z,941.6
2017-01-28T01:37:48.322Z,941.6
2017-01-28T01:38:56.353Z,941.7
2017-01-28T01:40:04.467Z,941.6
2017-01-28T01:41:12.542Z,941.6
2017-01-28T01:42:20.716Z,941.6
2017-01-28T01:43:28.923Z,941.6
2017-01-28T01:44:36.814Z,941.6
2017-01-28T01:45:44.894Z,941.6
2017-01-28T01:46:52.985Z,941.7
2017-01-28T01:48:01.078Z,941.7
2017-01-28T01:49:09.230Z,941.7
2017-01-28T01:50:17.259Z,941.8
2017-01-28T01:51:25.402Z,941.8
2017-01-28T01:52:33.436Z,941.8
2017-01-28T01:53:41.625Z,941.8
2017-01-28T01:54:49.668Z,941.8
2017-01-28T01:55:57.696Z,941.7
2017-01-28T01:57:05.790Z,941.8
2017-01-28T01:58:13.877Z,941.8
2017-01-28T01:59:21.965Z,941.8
2017-01-28T02:00:30.172Z,941.8
2017-01-28T02:01:38.151Z,941.8
2017-01-28T02:02:46.241Z,941.7
2017-01-28T02:03:54.324Z,941.7
2017-01-28T02:05:02.418Z,941.7
2017-01-28T02:06:10.561Z,941.7
2017-01-28T02:07:18.652Z,941.8
2017-01-28T02:08:26.680Z,941.7
2017-01-28T02:09:34.770Z,941.8
2017-01-28T02:10:42.860Z,941.8
2017-01-28T02:11:51.070Z,941.7
2017-01-28T02:12:59.047Z,941.7
2017-01-28T02:14:07.136Z,941.7
2017-01-28T02:15:15.301Z,941.7
2017-01-28T02:16:23.310Z,941.7
2017-01-28T02:17:31.461Z,941.8
2017-01-28T02:18:39.493Z,941.7
2017-01-28T02:19:47.764Z,941.7
2017-01-28T02:20:55.672Z,941.6
2017-01-28T02:22:03.760Z,941.6
2017-01-28T02:23:11.904Z,941.7
2017-01-28T02:24:19.942Z,941.7
2017-01-28T02:25:28.029Z,941.6
2017-01-28T02:26:36.128Z,941.7
2017-01-28T02:27:44.211Z,941.7
2017-01-28T02:28:52.427Z,941.7
2017-01-28T02:30:00.397Z,941.7
2017-01-28T02:31:08.596Z,941.7
2017-01-28T02:32:16.585Z,941.7
2017-01-28T02:33:24.674Z,941.7
2017-01-28T02:34:32.811Z,941.7
2017-01-28T02:35:40.845Z,941.7
2017-01-28T02:36:48.938Z,941.7
2017-01-28T02:37:57.028Z,941.7
2017-01-28T02:39:05.181Z,941.8
2017-01-28T02:40:13.276Z,941.8
2017-01-28T02:41:21.309Z,941.8
2017-01-28T02:42:29.399Z,941.7
2017-01-28T02:43:37.488Z,941.7
2017-01-28T02:44:45.580Z,941.8
2017-01-28T02:45:53.906Z,941.8
2017-01-28T02:47:01.841Z,941.7
2017-01-28T02:48:09.850Z,941.7
2017-01-28T02:49:17.940Z,941.8
2017-01-28T02:50:26.215Z,941.7
2017-01-28T02:51:34.338Z,941.7
2017-01-28T02:52:42.217Z,941.7
2017-01-28T02:53:50.309Z,941.7
2017-01-28T02:54:58.530Z,941.71
2017-01-28T02:56:06.491Z,941.7
2017-01-28T02:57:14.636Z,941.8
2017-01-28T02:58:22.670Z,941.7
2017-01-28T02:59:30.764Z,941.8
2017-01-28T03:00:38.861Z,941.7
2017-01-28T03:01:47.132Z,941.7
2017-01-28T03:02:55.101Z,941.8
2017-01-28T03:04:03.138Z,941.8
2017-01-28T03:05:11.229Z,941.8
2017-01-28T03:06:19.354Z,941.7
2017-01-28T03:07:27.442Z,941.8
2017-01-28T03:08:35.562Z,941.8
2017-01-28T03:09:43.610Z,941.7
2017-01-28T03:10:51.818Z,941.8
2017-01-28T03:11:59.888Z,941.8
2017-01-28T03:13:07.974Z,941.8
2017-01-28T03:14:16.029Z,941.8
2017-01-28T03:15:24.061Z,941.8
2017-01-28T03:16:32.158Z,941.8
2017-01-28T03:17:40.249Z,941.8
2017-01-28T03:18:48.337Z,941.8
2017-01-28T03:19:56.487Z,941.7
2017-01-28T03:21:04.531Z,941.8
2017-01-28T03:22:12.619Z,941.7
2017-01-28T03:23:20.727Z,941.7
2017-01-28T03:24:28.809Z,941.7
2017-01-28T03:25:36.956Z,941.7
2017-01-28T03:26:45.108Z,941.7
2017-01-28T03:27:53.252Z,941.8
2017-01-28T03:29:01.219Z,941.8
2017-01-28T03:30:09.338Z,941.8
2017-01-28T03:31:17.403Z,941.8
2017-01-28T03:32:25.442Z,941.8
2017-01-28T03:33:33.528Z,941.8
2017-01-28T03:34:41.614Z,941.8
2017-01-28T03:35:49.708Z,941.8
2017-01-28T03:36:57.863Z,941.7
2017-01-28T03:38:05.893Z,941.8
2017-01-28T03:39:14.050Z,941.8
2017-01-28T03:40:22.077Z,941.7
2017-01-28T03:41:30.178Z,941.7
2017-01-28T03:42:38.317Z,941.7
2017-01-28T03:43:46.356Z,941.7
2017-01-28T03:44:54.445Z,941.7
2017-01-28T03:46:02.534Z,941.7
2017-01-28T03:47:10.629Z,941.7
2017-01-28T03:48:18.839Z,941.7
2017-01-28T03:49:26.858Z,941.8
2017-01-28T03:50:34.917Z,941.8
2017-01-28T03:51:42.990Z,941.8
2017-01-28T03:52:51.076Z,941.8
2017-01-28T03:53:59.389Z,941.8
2017-01-28T03:55:07.390Z,941.7
2017-01-28T03:56:15.352Z,941.8
2017-01-28T03:57:23.443Z,941.8
2017-01-28T03:58:31.585Z,941.8
2017-01-28T03:59:39.680Z,941.8
2017-01-28T04:00:47.716Z,941.8
2017-01-28T04:01:55.802Z,941.8
2017-01-28T04:03:03.897Z,941.8
2017-01-28T04:04:11.986Z,941.8
2017-01-28T04:05:20.216Z,941.8
2017-01-28T04:06:28.157Z,941.8
2017-01-28T04:07:36.250Z,941.8
2017-01-28T04:08:44.339Z,941.7
2017-01-28T04:09:52.455Z,941.8
2017-01-28T04:11:00.578Z,941.7
2017-01-28T04:12:08.615Z,941.8
2017-01-28T04:13:16.704Z,941.8
2017-01-28T04:14:24.852Z,941.9
2017-01-28T04:15:32.888Z,941.9
2017-01-28T04:16:41.122Z,941.9
2017-01-28T04:17:49.072Z,941.8
2017-01-28T04:18:57.160Z,941.8
2017-01-28T04:20:05.255Z,941.9
2017-01-28T04:21:13.344Z,941.9
2017-01-28T04:22:21.497Z,941.9
2017-01-28T04:23:29.535Z,941.9
2017-01-28T04:24:37.626Z,941.9
2017-01-28T04:25:45.728Z,941.9
2017-01-28T04:26:53.806Z,941.9
2017-01-28T04:28:01.959Z,941.8
2017-01-28T04:29:09.999Z,941.8
2017-01-28T04:30:18.203Z,941.9
2017-01-28T04:31:26.299Z,941.8
2017-01-28T04:32:34.274Z,941.8
2017-01-28T04:33:42.419Z,941.9
2017-01-28T04:34:50.459Z,941.9
2017-01-28T04:35:58.545Z,941.8
2017-01-28T04:37:06.631Z,941.8
2017-01-28T04:38:14.722Z,941.8
2017-01-28T04:39:22.877Z,941.8
2017-01-28T04:40:30.914Z,941.8
2017-01-28T04:41:39.001Z,941.8
2017-01-28T04:42:47.176Z,941.9
2017-01-28T04:43:55.196Z,941.8
2017-01-28T04:45:03.333Z,941.8
2017-01-28T04:46:11.487Z,941.8
2017-01-28T04:47:19.466Z,941.9
2017-01-28T04:48:27.549Z,941.8
2017-01-28T04:49:35.644Z,941.9
2017-01-28T04:50:43.796Z,941.8
2017-01-28T04:51:51.835Z,941.8
2017-01-28T04:52:59.921Z,941.8
2017-01-28T04:54:08.008Z,941.8
2017-01-28T04:55:16.102Z,941.8
2017-01-28T04:56:24.250Z,941.9
2017-01-28T04:57:32.402Z,941.9
2017-01-28T04:58:40.376Z,941.9
2017-01-28T04:59:48.465Z,941.9
2017-01-28T05:00:56.551Z,941.9
2017-01-28T05:02:04.763Z,941.9
2017-01-28T05:03:12.735Z,941.9
2017-01-28T05:04:20.832Z,941.9
2017-01-28T05:05:28.925Z,941.9
2017-01-28T05:06:37.033Z,941.9
2017-01-28T05:07:45.180Z,941.9
2017-01-28T05:08:53.222Z,941.9
2017-01-28T05:10:01.311Z,941.9
2017-01-28T05:11:09.401Z,941.9
2017-01-28T05:12:17.494Z,942.0
2017-01-28T05:13:25.780Z,942.0
2017-01-28T05:14:33.683Z,942.0
2017-01-28T05:15:41.773Z,942.0
2017-01-28T05:16:49.860Z,942.0
2017-01-28T05:17:58.020Z,942.0
2017-01-28T05:19:06.172Z,942.0
2017-01-28T05:20:14.141Z,942.0
2017-01-28T05:21:22.226Z,942.0
2017-01-28T05:22:30.320Z,942.0
2017-01-28T05:23:38.450Z,942.0
2017-01-28T05:24:46.551Z,942.0
2017-01-28T05:25:54.588Z,942.0
2017-01-28T05:27:02.679Z,942.0
2017-01-28T05:28:10.768Z,942.0
2017-01-28T05:29:19.011Z,942.0
2017-01-28T05:30:27.016Z,942.0
2017-01-28T05:31:35.048Z,942.0
2017-01-28T05:32:43.137Z,942.0
2017-01-28T05:33:51.354Z,942.0
2017-01-28T05:34:59.323Z,942.0
2017-01-28T05:36:07.467Z,942.0
2017-01-28T05:37:15.499Z,942.0
2017-01-28T05:38:23.602Z,942.0
2017-01-28T05:39:31.802Z,942.0
2017-01-28T05:40:39.865Z,942.0
2017-01-28T05:41:47.933Z,942.0
2017-01-28T05:42:55.961Z,942.0
2017-01-28T05:44:04.057Z,942.0
2017-01-28T05:45:12.138Z,942.0
2017-01-28T05:46:20.230Z,942.0
2017-01-28T05:47:28.376Z,942.0
2017-01-28T05:48:36.413Z,942.0
2017-01-28T05:49:44.631Z,942.1
2017-01-28T05:50:52.714Z,942.1
2017-01-28T05:52:00.694Z,942.1
2017-01-28T05:53:08.847Z,942.1
2017-01-28T05:54:16.896Z,942.1
2017-01-28T05:55:24.986Z,942.1
2017-01-28T05:56:33.071Z,942.1
2017-01-28T05:57:41.168Z,942.1
2017-01-28T05:58:49.316Z,942.0
2017-01-28T05:59:57.346Z,942.1
2017-01-28T06:01:05.441Z,942.1
2017-01-28T06:02:13.544Z,942.1
2017-01-28T06:03:21.628Z,942.1
2017-01-28T06:04:29.834Z,942.1
2017-01-28T06:05:38.038Z,942.1
2017-01-28T06:06:46.049Z,942.1
2017-01-28T06:07:53.993Z,942.2
2017-01-28T06:09:02.081Z,942.2
2017-01-28T06:10:10.229Z,942.2
2017-01-28T06:11:18.259Z,942.2
2017-01-28T06:12:26.476Z,942.3
2017-01-28T06:13:34.445Z,942.3
2017-01-28T06:14:42.543Z,942.3
2017-01-28T06:15:50.682Z,942.2
2017-01-28T06:16:58.724Z,942.2
2017-01-28T06:18:06.809Z,942.2
2017-01-28T06:19:14.901Z,942.2
2017-01-28T06:20:22.988Z,942.2
2017-01-28T06:21:31.249Z,942.2
2017-01-28T06:22:39.169Z,942.2
2017-01-28T06:23:47.261Z,942.2
2017-01-28T06:24:55.356Z,942.2
2017-01-28T06:26:03.639Z,942.3
2017-01-28T06:27:11.593Z,942.2
2017-01-28T06:28:19.629Z,942.2
2017-01-28T06:29:27.721Z,942.2
2017-01-28T06:30:35.811Z,942.2
2017-01-28T06:31:43.903Z,942.2
2017-01-28T06:32:52.126Z,942.2
2017-01-28T06:34:00.092Z,942.2
2017-01-28T06:35:08.169Z,942.2
2017-01-28T06:36:16.266Z,942.2
2017-01-28T06:37:24.416Z,942.2
2017-01-28T06:38:32.508Z,942.2
2017-01-28T06:39:40.536Z,942.2
2017-01-28T06:40:48.629Z,942.2
2017-01-28T06:41:56.920Z,942.2
2017-01-28T06:43:04.810Z,942.2
2017-01-28T06:44:12.953Z,942.2
2017-01-28T06:45:20.993Z,942.2
2017-01-28T06:46:29.087Z,942.2
2017-01-28T06:47:37.176Z,942.2
2017-01-28T06:48:45.272Z,942.2
2017-01-28T06:49:53.416Z,942.2
2017-01-28T06:51:01.448Z,942.3
2017-01-28T06:52:09.679Z,942.2
2017-01-28T06:53:17.892Z,942.3
2017-01-28T06:54:25.718Z,942.3
2017-01-28T06:55:33.871Z,942.4
2017-01-28T06:56:41.902Z,942.4
2017-01-28T06:57:49.992Z,942.4
2017-01-28T06:58:58.077Z,942.3
2017-01-28T07:00:06.167Z,942.4
2017-01-28T07:01:14.316Z,942.4
2017-01-28T07:02:22.351Z,942.4
2017-01-28T07:03:30.441Z,942.4
2017-01-28T07:04:38.530Z,942.4
2017-01-28T07:05:46.622Z,942.4
2017-01-28T07:06:54.770Z,942.4
2017-01-28T07:08:02.802Z,942.4
2017-01-28T07:09:11.019Z,942.3
2017-01-28T07:10:18.990Z,942.4
2017-01-28T07:11:27.079Z,942.4
2017-01-28T07:12:35.229Z,942.4
2017-01-28T07:13:43.319Z,942.4
2017-01-28T07:14:51.350Z,942.4
2017-01-28T07:15:59.445Z,942.4
2017-01-28T07:17:07.543Z,942.4
2017-01-28T07:18:15.893Z,942.4
2017-01-28T07:19:23.721Z,942.4
2017-01-28T07:20:31.809Z,942.4
2017-01-28T07:21:39.902Z,942.4
2017-01-28T07:22:47.990Z,942.3
2017-01-28T07:23:56.136Z,942.4
2017-01-28T07:25:04.329Z,942.4
2017-01-28T07:26:12.261Z,942.4
2017-01-28T07:27:20.351Z,942.4
2017-01-28T07:28:28.439Z,942.4
2017-01-28T07:29:36.731Z,942.4
2017-01-28T07:30:44.618Z,942.4
2017-01-28T07:31:52.705Z,942.4
2017-01-28T07:33:00.804Z,942.4
2017-01-28T07:34:08.897Z,942.4
2017-01-28T07:35:17.111Z,942.4
2017-01-28T07:36:25.075Z,942.4
2017-01-28T07:37:33.165Z,942.4
2017-01-28T07:38:41.253Z,942.4
2017-01-28T07:39:49.346Z,942.4
2017-01-28T07:40:57.569Z,942.5
2017-01-28T07:42:05.532Z,942.4
2017-01-28T07:43:13.619Z,942.4
2017-01-28T07:44:21.715Z,942.4
2017-01-28T07:45:30.010Z,942.4
2017-01-28T07:46:37.952Z,942.4
2017-01-28T07:47:45.992Z,942.4
2017-01-28T07:48:54.088Z,942.5
2017-01-28T07:50:02.178Z,942.4
2017-01-28T07:51:10.273Z,942.4
2017-01-28T07:52:18.483Z,942.4
2017-01-28T07:53:26.452Z,942.5
2017-01-28T07:54:34.539Z,942.4
2017-01-28T07:55:42.749Z,942.4
2017-01-28T07:56:50.883Z,942.4
2017-01-28T07:57:58.869Z,942.4
2017-01-28T07:59:06.905Z,942.4
2017-01-28T08:00:14.998Z,942.4
2017-01-28T08:01:23.080Z,942.3
2017-01-28T08:02:31.174Z,942.4
2017-01-28T08:03:39.388Z,942.3
2017-01-28T08:04:47.356Z,942.4
2017-01-28T08:05:55.453Z,942.4
2017-01-28T08:07:03.532Z,942.4
2017-01-28T08:08:11.627Z,942.4
2017-01-28T08:09:19.779Z,942.5
2017-01-28T08:10:27.811Z,942.5
2017-01-28T08:11:36.098Z,942.5
2017-01-28T08:12:44.052Z,942.5
2017-01-28T08:13:52.113Z,942.5
2017-01-28T08:15:00.296Z,942.5
2017-01-28T08:16:08.269Z,942.5
2017-01-28T08:17:16.362Z,942.5
2017-01-28T08:18:24.452Z,942.5
2017-01-28T08:19:32.551Z,942.5
2017-01-28T08:20:40.691Z,942.5
2017-01-28T08:21:48.876Z,942.5
2017-01-28T08:22:56.960Z,942.5
2017-01-28T08:24:04.911Z,942.6
2017-01-28T08:25:13.004Z,942.5
2017-01-28T08:26:21.155Z,942.5
2017-01-28T08:27:29.192Z,942.6
2017-01-28T08:28:37.408Z,942.5
2017-01-28T08:29:45.376Z,942.6
2017-01-28T08:30:53.461Z,942.6
2017-01-28T08:32:01.684Z,942.6
2017-01-28T08:33:09.706Z,942.6
2017-01-28T08:34:17.733Z,942.7
2017-01-28T08:35:25.828Z,942.6
2017-01-28T08:36:33.918Z,942.6
2017-01-28T08:37:42.064Z,942.7
2017-01-28T08:38:50.103Z,942.7
2017-01-28T08:39:58.205Z,942.7
2017-01-28T08:41:06.306Z,942.7
2017-01-28T08:42:14.385Z,942.8
2017-01-28T08:43:23.425Z,942.8
2017-01-28T08:44:30.695Z,942.8
2017-01-28T08:45:38.668Z,942.8
2017-01-28T08:46:46.753Z,942.8
2017-01-28T08:47:54.850Z,942.8
2017-01-28T08:49:03.167Z,942.8
2017-01-28T08:50:11.027Z,942.8
2017-01-28T08:51:19.121Z,942.8
2017-01-28T08:52:27.207Z,942.8
2017-01-28T08:53:35.296Z,942.8
2017-01-28T08:54:43.503Z,942.9
2017-01-28T08:55:51.481Z,942.8
2017-01-28T08:56:59.576Z,942.9
2017-01-28T08:58:07.663Z,942.9
2017-01-28T08:59:15.854Z,942.8
2017-01-28T09:00:24.044Z,942.9
2017-01-28T09:01:31.932Z,942.9
2017-01-28T09:02:40.024Z,942.9
2017-01-28T09:03:48.119Z,942.9
2017-01-28T09:04:56.403Z,942.9
2017-01-28T09:06:04.353Z,942.8
2017-01-28T09:07:12.387Z,942.8
2017-01-28T09:08:20.484Z,942.9
2017-01-28T09:09:28.581Z,942.9
2017-01-28T09:10:36.670Z,942.9
2017-01-28T09:11:44.877Z,942.9
2017-01-28T09:12:52.846Z,942.9
2017-01-28T09:14:00.936Z,942.9
2017-01-28T09:15:09.127Z,942.8
2017-01-28T09:16:17.184Z,942.8
2017-01-28T09:17:25.328Z,942.8
2017-01-28T09:18:33.303Z,942.8
2017-01-28T09:19:41.399Z,942.8
2017-01-28T09:20:49.487Z,942.8
2017-01-28T09:21:57.575Z,942.8
2017-01-28T09:23:05.724Z,942.8
2017-01-28T09:24:13.757Z,942.8
2017-01-28T09:25:21.924Z,942.8
2017-01-28T09:26:30.003Z,942.8
2017-01-28T09:27:38.027Z,942.8
2017-01-28T09:28:46.238Z,942.8
2017-01-28T09:29:54.352Z,942.8
2017-01-28T09:31:02.300Z,942.8
2017-01-28T09:32:10.513Z,942.8
2017-01-28T09:33:18.480Z,942.8
2017-01-28T09:34:26.690Z,942.8
2017-01-28T09:35:34.663Z,942.8
2017-01-28T09:36:42.772Z,942.8
2017-01-28T09:37:50.843Z,942.8
2017-01-28T09:38:58.939Z,942.8
2017-01-28T09:40:07.084Z,942.7
2017-01-28T09:41:15.296Z,942.8
2017-01-28T09:42:23.205Z,942.8
2017-01-28T09:43:31.303Z,942.8
2017-01-28T09:44:39.390Z,942.8
2017-01-28T09:45:47.531Z,942.7
2017-01-28T09:46:55.666Z,942.8
2017-01-28T09:48:03.792Z,942.8
2017-01-28T09:49:11.762Z,942.8
2017-01-28T09:50:19.849Z,942.8
2017-01-28T09:51:28.064Z,942.9
2017-01-28T09:52:36.162Z,942.9
2017-01-28T09:53:44.126Z,942.9
2017-01-28T09:54:52.220Z,942.9
2017-01-28T09:56:00.310Z,942.9
2017-01-28T09:57:08.525Z,942.9
2017-01-28T09:58:16.503Z,942.9
2017-01-28T09:59:24.592Z,942.9
2017-01-28T10:00:32.687Z,942.9
2017-01-28T10:01:40.781Z,942.9
2017-01-28T10:02:49.018Z,942.9
2017-01-28T10:03:57.037Z,942.9
2017-01-28T10:05:05.050Z,942.9
2017-01-28T10:06:13.139Z,942.9
2017-01-28T10:07:21.420Z,942.9
2017-01-28T10:08:29.448Z,942.9
2017-01-28T10:09:37.405Z,942.9
2017-01-28T10:10:45.500Z,942.9
2017-01-28T10:11:53.591Z,942.9
2017-01-28T10:13:01.677Z,942.8
2017-01-28T10:14:09.897Z,942.8
2017-01-28T10:15:17.866Z,942.9
2017-01-28T10:16:25.952Z,942.9
2017-01-28T10:17:34.045Z,942.9
2017-01-28T10:18:42.206Z,942.8
2017-01-28T10:19:50.287Z,942.8
2017-01-28T10:20:58.318Z,942.8
2017-01-28T10:22:06.412Z,942.8
2017-01-28T10:23:14.697Z,942.8
2017-01-28T10:24:22.591Z,942.8
2017-01-28T10:25:30.738Z,942.8
2017-01-28T10:26:38.772Z,942.8
2017-01-28T10:27:46.858Z,942.8
2017-01-28T10:28:54.946Z,942.8
2017-01-28T10:30:03.046Z,942.8
2017-01-28T10:31:11.260Z,942.8
2017-01-28T10:32:19.232Z,942.8
2017-01-28T10:33:27.319Z,942.8
2017-01-28T10:34:35.412Z,942.7
2017-01-28T10:35:43.558Z,942.7
2017-01-28T10:36:51.715Z,942.7
2017-01-28T10:37:59.689Z,942.8
2017-01-28T10:39:07.949Z,942.7
2017-01-28T10:40:15.873Z,942.8
2017-01-28T10:41:23.966Z,942.8
2017-01-28T10:42:32.181Z,942.7
2017-01-28T10:43:40.153Z,942.8
2017-01-28T10:44:48.284Z,942.8
2017-01-28T10:45:56.330Z,942.7
2017-01-28T10:47:04.420Z,942.7
2017-01-28T10:48:12.564Z,942.7
2017-01-28T10:49:20.756Z,942.7
2017-01-28T10:50:28.697Z,942.7
2017-01-28T10:51:36.903Z,942.7
2017-01-28T10:52:44.874Z,942.7
2017-01-28T10:53:53.024Z,942.7
2017-01-28T10:55:01.138Z,942.7
2017-01-28T10:56:09.164Z,942.7
2017-01-28T10:57:17.261Z,942.7
2017-01-28T10:58:25.352Z,942.8
2017-01-28T10:59:33.578Z,942.7
2017-01-28T11:00:41.626Z,942.7
2017-01-28T11:01:49.636Z,942.7
2017-01-28T11:02:57.726Z,942.7
2017-01-28T11:04:05.818Z,942.7
2017-01-28T11:05:14.150Z,942.7
2017-01-28T11:06:22.005Z,942.7
2017-01-28T11:07:30.149Z,942.7
2017-01-28T11:08:38.182Z,942.7
2017-01-28T11:09:46.280Z,942.7
2017-01-28T11:10:54.495Z,942.7
2017-01-28T11:12:02.465Z,942.7
2017-01-28T11:13:10.560Z,942.7
2017-01-28T11:14:18.650Z,942.7
2017-01-28T11:15:26.849Z,942.7
2017-01-28T11:16:34.973Z,942.7
2017-01-28T11:17:42.914Z,942.6
2017-01-28T11:18:51.016Z,942.7
2017-01-28T11:19:59.094Z,942.6
2017-01-28T11:21:07.202Z,942.6
2017-01-28T11:22:15.403Z,942.6
2017-01-28T11:23:23.426Z,942.6
2017-01-28T11:24:31.465Z,942.6
2017-01-28T11:25:39.567Z,942.6
2017-01-28T11:26:47.675Z,942.6
2017-01-28T11:27:55.797Z,942.6
2017-01-28T11:29:03.839Z,942.6
2017-01-28T11:30:11.936Z,942.6
2017-01-28T11:31:20.133Z,942.6
2017-01-28T11:32:28.112Z,942.5
2017-01-28T11:33:36.326Z,942.5
2017-01-28T11:34:44.294Z,942.5
2017-01-28T11:35:52.375Z,942.5
2017-01-28T11:37:00.473Z,942.5
2017-01-28T11:38:08.565Z,942.5
2017-01-28T11:39:16.709Z,942.5
2017-01-28T11:40:24.748Z,942.5
2017-01-28T11:41:32.869Z,942.5
2017-01-28T11:42:40.959Z,942.4
2017-01-28T11:43:49.021Z,942.5
2017-01-28T11:44:57.243Z,942.5
2017-01-28T11:46:05.215Z,942.4
2017-01-28T11:47:13.466Z,942.5
2017-01-28T11:48:21.395Z,942.5
2017-01-28T11:49:29.484Z,942.4
2017-01-28T11:50:37.626Z,942.4
2017-01-28T11:51:45.659Z,942.5
2017-01-28T11:52:53.756Z,942.4
2017-01-28T11:54:01.848Z,942.4
2017-01-28T11:55:10.061Z,942.4
2017-01-28T11:56:18.093Z,942.4
2017-01-28T11:57:26.164Z,942.4
2017-01-28T11:58:34.245Z,942.4
2017-01-28T11:59:42.308Z,942.4
2017-01-28T12:00:50.406Z,942.4
2017-01-28T12:01:58.745Z,942.4
2017-01-28T12:03:06.772Z,942.4
2017-01-28T12:04:14.674Z,942.4
2017-01-28T12:05:22.773Z,942.4
2017-01-28T12:06:30.862Z,942.4
2017-01-28T12:07:39.094Z,942.3
2017-01-28T12:08:47.070Z,942.3
2017-01-28T12:09:55.137Z,942.4
2017-01-28T12:11:03.282Z,942.3
2017-01-28T12:12:11.320Z,942.3
2017-01-28T12:13:19.471Z,942.3
2017-01-28T12:14:27.500Z,942.3
2017-01-28T12:15:35.592Z,942.3
2017-01-28T12:16:43.719Z,942.3
2017-01-28T12:17:51.783Z,942.2
2017-01-28T12:19:00.034Z,942.2
2017-01-28T12:20:07.981Z,942.2
2017-01-28T12:21:16.056Z,942.2
2017-01-28T12:22:24.145Z,942.1
2017-01-28T12:23:32.391Z,942.1
2017-01-28T12:24:40.439Z,942.1
2017-01-28T12:25:48.425Z,942.1
2017-01-28T12:26:56.629Z,942.1
2017-01-28T12:28:04.604Z,942.0
2017-01-28T12:29:12.696Z,942.0
2017-01-28T12:30:20.839Z,942.0
2017-01-28T12:31:28.875Z,942.0
2017-01-28T12:32:36.970Z,942.0
2017-01-28T12:33:45.057Z,942.0
2017-01-28T12:34:53.263Z,942.0
2017-01-28T12:36:01.293Z,942.0
2017-01-28T12:37:09.326Z,942.0
2017-01-28T12:38:17.413Z,942.0
2017-01-28T12:39:25.503Z,942.0
2017-01-28T12:40:33.603Z,942.0
2017-01-28T12:41:41.819Z,942.0
2017-01-28T12:42:49.842Z,942.0
2017-01-28T12:43:57.884Z,942.0
2017-01-28T12:45:06.049Z,941.9
2017-01-28T12:46:14.109Z,942.0
2017-01-28T12:47:22.277Z,942.0
2017-01-28T12:48:30.256Z,941.9
2017-01-28T12:49:38.344Z,941.9
2017-01-28T12:50:46.466Z,941.9
2017-01-28T12:51:54.566Z,941.9
2017-01-28T12:53:02.745Z,941.9
2017-01-28T12:54:10.716Z,941.9
2017-01-28T12:55:18.806Z,941.9
2017-01-28T12:56:26.901Z,941.8
2017-01-28T12:57:34.990Z,941.8
2017-01-28T12:58:43.199Z,941.8
2017-01-28T12:59:51.173Z,941.8
2017-01-28T13:00:59.278Z,941.8
2017-01-28T13:02:07.350Z,941.8
2017-01-28T13:03:15.458Z,941.8
2017-01-28T13:04:23.664Z,941.8
2017-01-28T13:05:31.745Z,941.8
2017-01-28T13:06:39.815Z,941.8
2017-01-28T13:07:47.822Z,941.8
2017-01-28T13:08:55.913Z,941.8
2017-01-28T13:10:04.124Z,941.7
2017-01-28T13:11:12.287Z,941.7
2017-01-28T13:12:20.186Z,941.8
2017-01-28T13:13:28.270Z,941.8
2017-01-28T13:14:36.423Z,941.8
2017-01-28T13:15:44.515Z,941.8
2017-01-28T13:16:52.588Z,941.8
2017-01-28T13:18:00.643Z,941.8
2017-01-28T13:19:08.734Z,941.8
2017-01-28T13:20:16.852Z,941.8
2017-01-28T13:21:25.205Z,941.8
2017-01-28T13:22:33.016Z,941.8
2017-01-28T13:23:41.109Z,941.8
2017-01-28T13:24:49.199Z,941.8
2017-01-28T13:25:57.291Z,941.8
2017-01-28T13:27:05.440Z,941.8
2017-01-28T13:28:13.475Z,941.8
2017-01-28T13:29:21.565Z,941.8
2017-01-28T13:30:29.787Z,941.8
2017-01-28T13:31:37.919Z,941.8
2017-01-28T13:32:46.076Z,941.8
2017-01-28T13:33:53.939Z,941.8
2017-01-28T13:35:02.034Z,941.8
2017-01-28T13:36:10.328Z,941.8
2017-01-28T13:37:18.222Z,941.9
2017-01-28T13:38:26.438Z,941.9
2017-01-28T13:39:34.410Z,941.9
2017-01-28T13:40:42.507Z,941.9
2017-01-28T13:41:50.610Z,941.9
2017-01-28T13:42:58.754Z,941.9
2017-01-28T13:44:06.836Z,941.9
2017-01-28T13:45:14.872Z,941.9
2017-01-28T13:46:23.461Z,941.9
2017-01-28T13:47:31.050Z,941.9
2017-01-28T13:48:39.178Z,941.9
2017-01-28T13:49:47.292Z,941.9
2017-01-28T13:50:55.337Z,941.9
2017-01-28T13:52:03.425Z,941.9
2017-01-28T13:53:11.597Z,941.9
2017-01-28T13:54:19.604Z,941.9
2017-01-28T13:55:27.819Z,941.9
2017-01-28T13:56:35.791Z,941.9
2017-01-28T13:57:44.165Z,942.0
2017-01-28T13:58:51.977Z,942.0
2017-01-28T14:00:00.068Z,941.9
2017-01-28T14:01:08.218Z,942.0
2017-01-28T14:02:16.375Z,941.9
2017-01-28T14:03:24.347Z,942.0
2017-01-28T14:04:32.436Z,942.0
2017-01-28T14:05:40.527Z,941.9
2017-01-28T14:06:48.681Z,941.9
2017-01-28T14:07:56.715Z,941.9
2017-01-28T14:09:04.811Z,941.9
2017-01-28T14:10:12.892Z,942.0
2017-01-28T14:11:20.989Z,941.9
2017-01-28T14:12:29.202Z,941.9
2017-01-28T14:13:37.862Z,941.9
2017-01-28T14:14:45.270Z,941.9
2017-01-28T14:15:53.372Z,941.9
2017-01-28T14:17:01.458Z,942.0
2017-01-28T14:18:09.804Z,941.9
2017-01-28T14:19:17.824Z,941.9
2017-01-28T14:20:25.738Z,941.9
2017-01-28T14:21:33.831Z,941.9
2017-01-28T14:22:41.923Z,942.0
2017-01-28T14:23:51.162Z,941.9
2017-01-28T14:24:58.429Z,941.9
2017-01-28T14:26:06.709Z,941.9
2017-01-28T14:27:14.290Z,941.9
2017-01-28T14:28:22.375Z,941.9
2017-01-28T14:29:32.655Z,941.9
2017-01-28T14:30:38.829Z,941.9
2017-01-28T14:31:47.127Z,941.9
2017-01-28T14:32:54.746Z,942.0
2017-01-28T14:34:02.892Z,942.0
2017-01-28T14:35:11.049Z,942.0
2017-01-28T14:36:19.023Z,942.0